ADDS METAR Data INFO
IDs: Format: Raw Decoded Include TAF

Data at: 1951 UTC 14 Aug 2018

K3AU 141935Z AUTO 16006KT 10SM SCT026 OVC034 24/21 A2988 RMK AO2
K3AU 141915Z AUTO 19005KT 10SM SCT016 OVC034 23/21 A2989 RMK AO2
K3AU 141855Z AUTO 17008KT 10SM SCT016 BKN021 OVC065 24/21 A2989 RMK AO2
K3AU 141835Z AUTO 17009KT 10SM SCT016 SCT023 BKN120 24/21 A2989 RMK AO2
K3AU 141815Z AUTO 20007KT 10SM BKN015 BKN024 BKN029 24/21 A2989 RMK AO2
K3AU 141755Z AUTO 00000KT 10SM BKN011 BKN017 23/21 A2990 RMK AO2
K3AU 141735Z AUTO 19003KT 10SM BKN011 21/21 A2991 RMK AO2
K3AU 141715Z AUTO 21003KT 10SM SCT049 SCT075 21/21 A2992 RMK AO2
K3AU 141655Z AUTO 14003KT 10SM -RA SCT018 BKN042 BKN065 20/20 A2992 RMK AO2
K3AU 141635Z AUTO 00000KT 10SM -RA SCT021 BKN042 OVC100 19/19 A2993 RMK AO2
K3AU 141615Z AUTO 00000KT 4SM RA SCT028 BKN042 OVC070 19/19 A2993 RMK AO2
K3AU 141555Z AUTO 23007KT 2SM +RA SCT014 BKN027 OVC060 19/19 A2994 RMK AO2
K3AU 141535Z AUTO 27010G16KT 10SM -RA SCT008 BKN025 OVC040 21/20 A2992 RMK AO2
K3AU 141515Z AUTO 25006KT 4SM -RA SCT007 BKN028 OVC044 22/22 A2991 RMK AO2
K3AU 141455Z AUTO 28005KT 7SM RA OVC007 22/21 A2991 RMK AO2
K3AU 141435Z AUTO 23004KT 4SM -RA OVC007 22/21 A2991 RMK AO2
K3AU 141415Z AUTO 21005KT 5SM BR BKN007 OVC012 22/21 A2991 RMK AO2
K3AU 141355Z AUTO 20005KT 5SM BR OVC005 22/21 A2992 RMK AO2
K3AU 141335Z AUTO 17006KT 5SM BR OVC005 21/21 A2992 RMK AO2
K3AU 141315Z AUTO 16006KT 5SM BR OVC003 21/21 A2991 RMK AO2
K3AU 141255Z AUTO 17007KT 4SM BR OVC003 21/21 A2992 RMK AO2
K3AU 141235Z AUTO 19005KT 3SM BR OVC003 21/21 A2992 RMK AO2
K3AU 141215Z AUTO 19003KT 3SM BR BKN005 OVC011 21/21 A2993 RMK AO2
K3AU 141155Z AUTO 17003KT 4SM BR BKN005 OVC011 21/21 A2992 RMK AO2
K3AU 141135Z AUTO 19005KT 5SM BR OVC005 21/21 A2992 RMK AO2
K3AU 141115Z AUTO 18005KT 7SM OVC005 21/21 A2991 RMK AO2
K3AU 141055Z AUTO 18004KT 5SM BR OVC005 21/21 A2991 RMK AO2
K3AU 141035Z AUTO 17005KT 5SM BR BKN005 BKN015 OVC022 21/21 A2991 RMK AO2
K3AU 141015Z AUTO 18004KT 7SM BKN005 BKN015 OVC022 21/21 A2991 RMK AO2
K3AU 140955Z AUTO 17005KT 5SM BR OVC005 21/21 A2990 RMK AO2
K3AU 140935Z AUTO 16003KT 7SM OVC005 21/21 A2990 RMK AO2
K3AU 140915Z AUTO 17004KT 7SM OVC005 21/21 A2991 RMK AO2
K3AU 140855Z AUTO 17004KT 7SM OVC005 21/21 A2991 RMK AO2
K3AU 140835Z AUTO 16004KT 7SM OVC007 21/21 A2991 RMK AO2
K3AU 140815Z AUTO 16005KT 7SM BKN004 OVC010 21/21 A2991 RMK AO2
K3AU 140755Z AUTO 16003KT 7SM OVC004 21/21 A2992 RMK AO2
K3AU 140735Z AUTO 17004KT 10SM OVC004 21/21 A2992 RMK AO2
K3AU 140715Z AUTO 16004KT 10SM OVC004 21/21 A2992 RMK AO2
K3AU 140655Z AUTO 15004KT 10SM OVC004 21/21 A2993 RMK AO2
K3AU 140635Z AUTO 15005KT 10SM OVC004 21/21 A2993 RMK AO2
K3AU 140615Z AUTO 14003KT 10SM OVC004 20/20 A2994 RMK AO2
K3AU 140555Z AUTO 00000KT 7SM -DZ OVC004 20/20 A2995 RMK AO2
K3AU 140535Z AUTO 00000KT 10SM BKN006 OVC012 20/20 A2995 RMK AO2
K3AU 140515Z AUTO 00000KT 10SM -RA BKN008 BKN012 OVC017 20/20 A2995 RMK AO2
K3AU 140455Z AUTO 00000KT 10SM -RA BKN013 BKN022 OVC046 20/20 A2995 RMK AO2
K3AU 140435Z AUTO 00000KT 10SM -DZ SCT015 BKN020 OVC046 20/20 A2995 RMK AO2
K3AU 140415Z AUTO 16003KT 10SM BKN017 OVC070 20/20 A2996 RMK AO2
K3AU 140355Z AUTO 00000KT 10SM -RA BKN015 BKN060 BKN080 20/20 A2996 RMK AO2
K3AU 140335Z AUTO 17003KT 10SM -RA SCT070 SCT080 BKN100 20/20 A2995 RMK AO2
K3AU 140315Z AUTO 16004KT 10SM DZ SCT070 SCT080 BKN100 20/20 A2995 RMK AO2
K3AU 140255Z AUTO 15005KT 10SM DZ SCT010 BKN050 OVC100 20/20 A2996 RMK AO2
K3AU 140235Z AUTO 14009KT 10SM SCT010 BKN025 OVC110 21/21 A2996 RMK AO2
K3AU 140215Z AUTO 09004KT 10SM SCT010 BKN019 OVC110 21/21 A2995 RMK AO2
K3AU 140155Z AUTO 00000KT 10SM BKN019 BKN026 BKN110 21/21 A2995 RMK AO2
K3AU 140135Z AUTO 00000KT 10SM SCT035 SCT050 SCT070 21/21 A2995 RMK AO2
K3AU 140115Z AUTO 00000KT 10SM -DZ SCT040 SCT055 BKN120 21/21 A2996 RMK AO2
K3AU 140055Z AUTO 00000KT 10SM SCT021 OVC120 21/20 A2995 RMK AO2
K3AU 140035Z AUTO 00000KT 10SM BKN023 BKN070 BKN080 21/21 A2995 RMK AO2
K3AU 140015Z AUTO 00000KT 10SM -RA SCT008 SCT031 BKN075 21/20 A2995 RMK AO2
K3AU 132355Z AUTO 21005KT 4SM RA SCT010 BKN029 OVC075 21/21 A2996 RMK AO2
K3AU 132335Z AUTO 13006KT 4SM +RA OVC029 22/21 A2996 RMK AO2
K3AU 132315Z AUTO 00000KT 10SM -RA SCT033 BKN050 OVC075 22/22 A2996 RMK AO2
K3AU 132255Z AUTO 00000KT 5SM -RA SCT026 BKN075 OVC080 22/22 A2996 RMK AO2
K3AU 132235Z AUTO 12009KT 7SM +RA SCT018 BKN031 BKN060 22/22 A2996 RMK AO2
K3AU 132215Z AUTO 00000KT 10SM SCT027 SCT039 BKN055 22/22 A2996 RMK AO2
K3AU 132155Z AUTO 25005KT 1 1/2SM BR BKN020 BKN038 OVC049 22/21 A2996 RMK AO2
K3AU 132135Z AUTO 21004KT 7SM RA SCT024 BKN039 OVC090 23/22 A2996 RMK AO2
K3AU 132115Z AUTO 09003KT 10SM SCT010 SCT040 BKN060 23/22 A2996 RMK AO2
K3AU 132055Z AUTO 11007KT 3SM RA SCT013 BKN029 BKN049 23/23 A2996 RMK AO2
K3AU 132035Z AUTO 13004KT 10SM SCT028 SCT046 SCT095 24/22 A2996 RMK AO2
K3AU 132015Z AUTO 13004KT 10SM SCT049 SCT090 24/23 A2998 RMK AO2
K3AU 131955Z AUTO 13006KT 10SM SCT021 SCT047 BKN090 23/22 A2999 RMK AO2
K3AU 131935Z AUTO 14007KT 10SM SCT022 SCT037 BKN090 22/22 A3000 RMK AO2
K3AU 131915Z AUTO 15007KT 7SM -RA SCT020 BKN060 OVC100 22/21 A3000 RMK AO2
K3AU 131855Z AUTO 13012KT 10SM SCT018 SCT027 BKN100 22/21 A3000 RMK AO2
K3AU 131835Z AUTO 16010KT 10SM SCT014 SCT040 SCT065 25/22 A3000 RMK AO2
K3AU 131815Z AUTO 17011G14KT 10SM SCT013 SCT040 BKN090 25/22 A3000 RMK AO2
K3AU 131755Z AUTO 18007KT 10SM SCT018 SCT029 BKN090 24/23 A3001 RMK AO2
K3AU 131735Z AUTO 17010KT 10SM BKN020 OVC028 25/22 A3001 RMK AO2
K3AU 131715Z AUTO 16008KT 10SM -RA BKN022 BKN028 OVC034 25/22 A3002 RMK AO2
K3AU 131655Z AUTO 16008KT 10SM BKN022 BKN035 OVC048 25/22 A3003 RMK AO2
K3AU 131635Z AUTO 14009KT 10SM BKN020 BKN041 26/21 A3003 RMK AO2
K3AU 131615Z AUTO 13007KT 10SM BKN018 BKN039 BKN045 25/21 A3003 RMK AO2
K3AU 131555Z AUTO 11007KT 10SM BKN016 BKN039 BKN045 25/21 A3003 RMK AO2
K3AU 131535Z AUTO 14009KT 10SM OVC014 25/21 A3003 RMK AO2
K3AU 131515Z AUTO 14007KT 10SM OVC016 24/21 A3002 RMK AO2
K3AU 131455Z AUTO 14005KT 10SM OVC014 23/21 A3003 RMK AO2
K3AU 131435Z AUTO 16004KT 10SM OVC010 23/21 A3003 RMK AO2
K3AU 131415Z AUTO 16005KT 10SM OVC008 23/22 A3004 RMK AO2
K3AU 131355Z AUTO 16005KT 10SM OVC008 23/22 A3004 RMK AO2
K3AU 131335Z AUTO 14005KT 10SM BKN008 OVC012 22/21 A3005 RMK AO2
K3AU 131315Z AUTO 14007KT 10SM OVC008 22/21 A3005 RMK AO2
K3AU 131255Z AUTO 13006KT 10SM OVC008 22/21 A3005 RMK AO2
K3AU 131235Z AUTO 13006KT 10SM OVC010 22/21 A3005 RMK AO2
K3AU 131215Z AUTO 13005KT 10SM BKN010 OVC023 21/21 A3005 RMK AO2
K3AU 131155Z AUTO 13004KT 10SM -DZ SCT010 BKN023 OVC050 21/21 A3004 RMK AO2
K3AU 131135Z AUTO 11005KT 10SM SCT010 SCT031 BKN050 21/21 A3004 RMK AO2
K3AU 131115Z AUTO 13005KT 10SM SCT031 BKN043 21/20 A3004 RMK AO2
K3AU 131055Z AUTO 13005KT 10SM SCT043 21/20 A3004 RMK AO2
K3AU 131035Z AUTO 12004KT 10SM CLR 21/20 A3004 RMK AO2
K3AU 131015Z AUTO 12004KT 10SM SCT024 21/20 A3004 RMK AO2
K3AU 130955Z AUTO 10004KT 10SM SCT024 SCT100 SCT120 21/20 A3005 RMK AO2
K3AU 130935Z AUTO 09003KT 10SM SCT110 21/20 A3005 RMK AO2
K3AU 130915Z AUTO 09004KT 10SM SCT120 21/20 A3005 RMK AO2
K3AU 130855Z AUTO 00000KT 10SM SCT120 21/20 A3005 RMK AO2
K3AU 130835Z AUTO 14003KT 10SM CLR 21/20 A3005 RMK AO2
K3AU 130815Z AUTO 00000KT 10SM CLR 21/20 A3005 RMK AO2
K3AU 130755Z AUTO 00000KT 10SM CLR 21/20 A3006 RMK AO2